sensor_id;sensor_type;location;lat;lon;timestamp;P1;durP1;ratioP1;P2;durP2;ratioP2
25419;SDS011;13354;48.174;11.566;2024-02-26T00:02:15;4.20;;;3.00;;
25419;SDS011;13354;48.174;11.566;2024-02-26T00:04:41;3.55;;;2.95;;
25419;SDS011;13354;48.174;11.566;2024-02-26T00:07:06;4.45;;;2.92;;
25419;SDS011;13354;48.174;11.566;2024-02-26T00:09:32;3.38;;;2.92;;
25419;SDS011;13354;48.174;11.566;2024-02-26T00:12:00;4.07;;;2.60;;
25419;SDS011;13354;48.174;11.566;2024-02-26T00:14:26;4.75;;;2.55;;
25419;SDS011;13354;48.174;11.566;2024-02-26T00:16:51;3.33;;;2.85;;
25419;SDS011;13354;48.174;11.566;2024-02-26T00:19:17;3.38;;;2.63;;
25419;SDS011;13354;48.174;11.566;2024-02-26T00:21:42;2.83;;;2.53;;
25419;SDS011;13354;48.174;11.566;2024-02-26T00:24:07;4.68;;;2.47;;
25419;SDS011;13354;48.174;11.566;2024-02-26T00:26:33;3.78;;;2.90;;
25419;SDS011;13354;48.174;11.566;2024-02-26T00:28:59;4.78;;;2.47;;
25419;SDS011;13354;48.174;11.566;2024-02-26T00:31:24;3.58;;;2.70;;
25419;SDS011;13354;48.174;11.566;2024-02-26T00:33:49;3.53;;;2.50;;
25419;SDS011;13354;48.174;11.566;2024-02-26T00:36:15;3.97;;;2.83;;
25419;SDS011;13354;48.174;11.566;2024-02-26T00:38:40;3.70;;;2.70;;
25419;SDS011;13354;48.174;11.566;2024-02-26T00:41:05;3.25;;;2.45;;
25419;SDS011;13354;48.174;11.566;2024-02-26T00:43:31;4.07;;;2.58;;
25419;SDS011;13354;48.174;11.566;2024-02-26T00:45:56;4.35;;;2.72;;
25419;SDS011;13354;48.174;11.566;2024-02-26T00:48:22;3.40;;;2.75;;
25419;SDS011;13354;48.174;11.566;2024-02-26T00:50:47;4.43;;;2.60;;
25419;SDS011;13354;48.174;11.566;2024-02-26T00:53:12;2.90;;;2.47;;
25419;SDS011;13354;48.174;11.566;2024-02-26T00:55:38;3.10;;;2.80;;
25419;SDS011;13354;48.174;11.566;2024-02-26T00:58:03;3.10;;;2.55;;
25419;SDS011;13354;48.174;11.566;2024-02-26T01:00:29;2.78;;;2.10;;
25419;SDS011;13354;48.174;11.566;2024-02-26T01:02:54;4.97;;;2.95;;
25419;SDS011;13354;48.174;11.566;2024-02-26T01:05:19;3.15;;;2.50;;
25419;SDS011;13354;48.174;11.566;2024-02-26T01:07:45;2.95;;;2.63;;
25419;SDS011;13354;48.174;11.566;2024-02-26T01:10:10;3.03;;;2.55;;
25419;SDS011;13354;48.174;11.566;2024-02-26T01:12:36;3.72;;;2.60;;
25419;SDS011;13354;48.174;11.566;2024-02-26T01:15:02;4.05;;;2.58;;
25419;SDS011;13354;48.174;11.566;2024-02-26T01:17:30;4.65;;;2.88;;
25419;SDS011;13354;48.174;11.566;2024-02-26T01:19:55;3.13;;;2.40;;
25419;SDS011;13354;48.174;11.566;2024-02-26T01:22:21;2.85;;;2.50;;
25419;SDS011;13354;48.174;11.566;2024-02-26T01:24:47;4.05;;;3.00;;
25419;SDS011;13354;48.174;11.566;2024-02-26T01:27:13;3.38;;;2.60;;
25419;SDS011;13354;48.174;11.566;2024-02-26T01:29:40;3.92;;;2.58;;
25419;SDS011;13354;48.174;11.566;2024-02-26T01:32:06;2.83;;;2.42;;
25419;SDS011;13354;48.174;11.566;2024-02-26T01:34:31;2.83;;;2.35;;
25419;SDS011;13354;48.174;11.566;2024-02-26T01:36:57;5.15;;;2.70;;
25419;SDS011;13354;48.174;11.566;2024-02-26T01:39:22;3.50;;;2.55;;
25419;SDS011;13354;48.174;11.566;2024-02-26T01:41:48;4.13;;;2.97;;
25419;SDS011;13354;48.174;11.566;2024-02-26T01:44:13;3.70;;;2.95;;
25419;SDS011;13354;48.174;11.566;2024-02-26T01:46:39;4.80;;;2.88;;
25419;SDS011;13354;48.174;11.566;2024-02-26T01:49:04;3.75;;;2.72;;
25419;SDS011;13354;48.174;11.566;2024-02-26T01:51:32;3.05;;;2.58;;
25419;SDS011;13354;48.174;11.566;2024-02-26T01:53:58;3.92;;;2.67;;
25419;SDS011;13354;48.174;11.566;2024-02-26T01:56:26;3.05;;;2.40;;
25419;SDS011;13354;48.174;11.566;2024-02-26T01:58:55;3.22;;;2.72;;
25419;SDS011;13354;48.174;11.566;2024-02-26T02:01:21;3.33;;;2.45;;
25419;SDS011;13354;48.174;11.566;2024-02-26T02:03:50;3.75;;;2.47;;
25419;SDS011;13354;48.174;11.566;2024-02-26T02:06:16;3.47;;;2.40;;
25419;SDS011;13354;48.174;11.566;2024-02-26T02:08:42;3.35;;;2.67;;
25419;SDS011;13354;48.174;11.566;2024-02-26T02:11:07;3.55;;;2.78;;
25419;SDS011;13354;48.174;11.566;2024-02-26T02:13:36;3.42;;;2.70;;
25419;SDS011;13354;48.174;11.566;2024-02-26T02:16:02;3.10;;;2.80;;
25419;SDS011;13354;48.174;11.566;2024-02-26T02:18:27;4.88;;;2.40;;
25419;SDS011;13354;48.174;11.566;2024-02-26T02:20:53;3.90;;;2.42;;
25419;SDS011;13354;48.174;11.566;2024-02-26T02:23:18;2.60;;;2.38;;
25419;SDS011;13354;48.174;11.566;2024-02-26T02:25:44;4.40;;;2.60;;
25419;SDS011;13354;48.174;11.566;2024-02-26T02:28:09;2.72;;;2.40;;
25419;SDS011;13354;48.174;11.566;2024-02-26T02:30:35;3.13;;;2.40;;
25419;SDS011;13354;48.174;11.566;2024-02-26T02:33:01;3.38;;;2.20;;
25419;SDS011;13354;48.174;11.566;2024-02-26T02:35:26;2.95;;;2.25;;
25419;SDS011;13354;48.174;11.566;2024-02-26T02:37:52;3.53;;;2.38;;
25419;SDS011;13354;48.174;11.566;2024-02-26T02:40:18;2.83;;;2.22;;
25419;SDS011;13354;48.174;11.566;2024-02-26T02:42:43;3.05;;;2.28;;
25419;SDS011;13354;48.174;11.566;2024-02-26T02:45:08;3.28;;;2.10;;
25419;SDS011;13354;48.174;11.566;2024-02-26T02:47:37;2.70;;;2.40;;
25419;SDS011;13354;48.174;11.566;2024-02-26T02:50:03;2.58;;;2.20;;
25419;SDS011;13354;48.174;11.566;2024-02-26T02:52:29;2.63;;;2.20;;
25419;SDS011;13354;48.174;11.566;2024-02-26T02:54:54;2.15;;;1.95;;
25419;SDS011;13354;48.174;11.566;2024-02-26T02:57:19;2.88;;;2.28;;
25419;SDS011;13354;48.174;11.566;2024-02-26T02:59:45;3.35;;;2.08;;
25419;SDS011;13354;48.174;11.566;2024-02-26T03:02:11;2.92;;;2.20;;
25419;SDS011;13354;48.174;11.566;2024-02-26T03:04:37;4.47;;;2.35;;
25419;SDS011;13354;48.174;11.566;2024-02-26T03:07:02;3.90;;;2.10;;
25419;SDS011;13354;48.174;11.566;2024-02-26T03:09:27;2.35;;;2.10;;
25419;SDS011;13354;48.174;11.566;2024-02-26T03:11:53;2.47;;;1.90;;
25419;SDS011;13354;48.174;11.566;2024-02-26T03:14:18;3.17;;;2.13;;
25419;SDS011;13354;48.174;11.566;2024-02-26T03:16:43;2.22;;;1.98;;
25419;SDS011;13354;48.174;11.566;2024-02-26T03:19:09;2.70;;;2.30;;
25419;SDS011;13354;48.174;11.566;2024-02-26T03:21:34;2.88;;;2.03;;
25419;SDS011;13354;48.174;11.566;2024-02-26T03:24:00;2.78;;;1.75;;
25419;SDS011;13354;48.174;11.566;2024-02-26T03:26:25;2.17;;;1.90;;
25419;SDS011;13354;48.174;11.566;2024-02-26T03:28:50;2.58;;;1.75;;
25419;SDS011;13354;48.174;11.566;2024-02-26T03:31:16;1.95;;;1.70;;
25419;SDS011;13354;48.174;11.566;2024-02-26T03:33:41;2.25;;;1.85;;
25419;SDS011;13354;48.174;11.566;2024-02-26T03:36:06;3.00;;;2.00;;
25419;SDS011;13354;48.174;11.566;2024-02-26T03:38:32;2.55;;;1.80;;
25419;SDS011;13354;48.174;11.566;2024-02-26T03:40:58;2.20;;;1.90;;
25419;SDS011;13354;48.174;11.566;2024-02-26T03:43:23;2.55;;;2.03;;
25419;SDS011;13354;48.174;11.566;2024-02-26T03:45:48;3.20;;;2.20;;
25419;SDS011;13354;48.174;11.566;2024-02-26T03:48:14;2.83;;;2.00;;
25419;SDS011;13354;48.174;11.566;2024-02-26T03:50:39;4.78;;;2.28;;
25419;SDS011;13354;48.174;11.566;2024-02-26T03:53:04;2.05;;;1.85;;
25419;SDS011;13354;48.174;11.566;2024-02-26T03:55:30;3.67;;;1.85;;
25419;SDS011;13354;48.174;11.566;2024-02-26T03:57:55;2.40;;;1.98;;
25419;SDS011;13354;48.174;11.566;2024-02-26T04:00:21;3.47;;;1.95;;
25419;SDS011;13354;48.174;11.566;2024-02-26T04:02:47;2.55;;;2.10;;
25419;SDS011;13354;48.174;11.566;2024-02-26T04:05:12;2.30;;;1.88;;
25419;SDS011;13354;48.174;11.566;2024-02-26T04:07:39;2.67;;;1.60;;
25419;SDS011;13354;48.174;11.566;2024-02-26T04:10:11;2.10;;;1.80;;
25419;SDS011;13354;48.174;11.566;2024-02-26T04:12:40;2.50;;;2.15;;
25419;SDS011;13354;48.174;11.566;2024-02-26T04:15:09;2.63;;;2.00;;
25419;SDS011;13354;48.174;11.566;2024-02-26T04:17:36;2.33;;;1.83;;
25419;SDS011;13354;48.174;11.566;2024-02-26T04:20:02;4.15;;;2.00;;
25419;SDS011;13354;48.174;11.566;2024-02-26T04:22:28;2.15;;;1.92;;
25419;SDS011;13354;48.174;11.566;2024-02-26T04:24:53;2.22;;;1.80;;
25419;SDS011;13354;48.174;11.566;2024-02-26T04:27:19;3.33;;;2.10;;
25419;SDS011;13354;48.174;11.566;2024-02-26T04:29:44;2.97;;;2.08;;
25419;SDS011;13354;48.174;11.566;2024-02-26T04:32:10;2.70;;;1.83;;
25419;SDS011;13354;48.174;11.566;2024-02-26T04:34:35;4.85;;;2.10;;
25419;SDS011;13354;48.174;11.566;2024-02-26T04:37:00;2.53;;;1.75;;
25419;SDS011;13354;48.174;11.566;2024-02-26T04:39:26;3.05;;;1.90;;
25419;SDS011;13354;48.174;11.566;2024-02-26T04:41:51;3.20;;;2.13;;
25419;SDS011;13354;48.174;11.566;2024-02-26T04:44:16;2.10;;;1.90;;
25419;SDS011;13354;48.174;11.566;2024-02-26T04:46:42;2.38;;;1.90;;
25419;SDS011;13354;48.174;11.566;2024-02-26T04:49:07;2.85;;;2.00;;
25419;SDS011;13354;48.174;11.566;2024-02-26T04:51:32;3.15;;;2.00;;
25419;SDS011;13354;48.174;11.566;2024-02-26T04:53:58;2.60;;;1.95;;
25419;SDS011;13354;48.174;11.566;2024-02-26T04:56:24;3.63;;;1.80;;
25419;SDS011;13354;48.174;11.566;2024-02-26T04:58:50;2.10;;;1.80;;
25419;SDS011;13354;48.174;11.566;2024-02-26T05:01:15;1.85;;;1.75;;
25419;SDS011;13354;48.174;11.566;2024-02-26T05:03:42;2.80;;;1.77;;
25419;SDS011;13354;48.174;11.566;2024-02-26T05:06:08;3.55;;;2.08;;
25419;SDS011;13354;48.174;11.566;2024-02-26T05:08:34;1.95;;;1.65;;
25419;SDS011;13354;48.174;11.566;2024-02-26T05:11:01;2.08;;;1.80;;
25419;SDS011;13354;48.174;11.566;2024-02-26T05:13:27;3.13;;;1.92;;
25419;SDS011;13354;48.174;11.566;2024-02-26T05:15:53;2.20;;;1.73;;
25419;SDS011;13354;48.174;11.566;2024-02-26T05:18:19;2.60;;;1.52;;
25419;SDS011;13354;48.174;11.566;2024-02-26T05:20:44;2.60;;;1.70;;
25419;SDS011;13354;48.174;11.566;2024-02-26T05:23:09;2.45;;;1.60;;
25419;SDS011;13354;48.174;11.566;2024-02-26T05:25:35;3.38;;;1.70;;
25419;SDS011;13354;48.174;11.566;2024-02-26T05:28:00;4.70;;;1.90;;
25419;SDS011;13354;48.174;11.566;2024-02-26T05:30:26;7.20;;;1.80;;
25419;SDS011;13354;48.174;11.566;2024-02-26T05:32:53;3.70;;;1.92;;
25419;SDS011;13354;48.174;11.566;2024-02-26T05:35:18;5.20;;;2.05;;
25419;SDS011;13354;48.174;11.566;2024-02-26T05:37:44;3.75;;;1.80;;
25419;SDS011;13354;48.174;11.566;2024-02-26T05:40:09;3.10;;;1.88;;
25419;SDS011;13354;48.174;11.566;2024-02-26T05:42:36;2.22;;;1.73;;
25419;SDS011;13354;48.174;11.566;2024-02-26T05:45:01;4.68;;;1.90;;
25419;SDS011;13354;48.174;11.566;2024-02-26T05:47:31;3.33;;;2.40;;
25419;SDS011;13354;48.174;11.566;2024-02-26T05:49:57;2.83;;;1.85;;
25419;SDS011;13354;48.174;11.566;2024-02-26T05:52:24;2.22;;;2.00;;
25419;SDS011;13354;48.174;11.566;2024-02-26T05:54:49;2.58;;;1.60;;
25419;SDS011;13354;48.174;11.566;2024-02-26T05:57:15;6.13;;;1.98;;
25419;SDS011;13354;48.174;11.566;2024-02-26T05:59:40;3.35;;;1.85;;
25419;SDS011;13354;48.174;11.566;2024-02-26T06:02:05;3.03;;;1.73;;
25419;SDS011;13354;48.174;11.566;2024-02-26T06:04:31;4.72;;;2.10;;
25419;SDS011;13354;48.174;11.566;2024-02-26T06:06:57;4.03;;;1.80;;
25419;SDS011;13354;48.174;11.566;2024-02-26T06:09:22;3.30;;;2.10;;
25419;SDS011;13354;48.174;11.566;2024-02-26T06:11:48;2.70;;;1.92;;
25419;SDS011;13354;48.174;11.566;2024-02-26T06:14:13;2.83;;;2.00;;
25419;SDS011;13354;48.174;11.566;2024-02-26T06:16:43;4.35;;;1.80;;
25419;SDS011;13354;48.174;11.566;2024-02-26T06:19:08;2.10;;;1.80;;
25419;SDS011;13354;48.174;11.566;2024-02-26T06:21:33;3.83;;;2.03;;
25419;SDS011;13354;48.174;11.566;2024-02-26T06:23:59;2.35;;;1.60;;
25419;SDS011;13354;48.174;11.566;2024-02-26T06:26:24;2.60;;;1.83;;
25419;SDS011;13354;48.174;11.566;2024-02-26T06:28:53;4.53;;;1.65;;
25419;SDS011;13354;48.174;11.566;2024-02-26T06:31:19;6.47;;;1.90;;
25419;SDS011;13354;48.174;11.566;2024-02-26T06:33:46;2.30;;;2.00;;
25419;SDS011;13354;48.174;11.566;2024-02-26T06:36:11;7.93;;;2.47;;
25419;SDS011;13354;48.174;11.566;2024-02-26T06:38:37;2.67;;;1.80;;
25419;SDS011;13354;48.174;11.566;2024-02-26T06:41:02;3.33;;;1.85;;
25419;SDS011;13354;48.174;11.566;2024-02-26T06:43:28;5.50;;;2.40;;
25419;SDS011;13354;48.174;11.566;2024-02-26T06:45:54;3.13;;;1.85;;
25419;SDS011;13354;48.174;11.566;2024-02-26T06:48:19;9.60;;;2.00;;
25419;SDS011;13354;48.174;11.566;2024-02-26T06:50:44;4.28;;;1.80;;
25419;SDS011;13354;48.174;11.566;2024-02-26T06:53:09;4.72;;;1.80;;
25419;SDS011;13354;48.174;11.566;2024-02-26T06:55:35;6.32;;;1.80;;
25419;SDS011;13354;48.174;11.566;2024-02-26T06:58:02;3.00;;;1.90;;
25419;SDS011;13354;48.174;11.566;2024-02-26T07:00:27;8.32;;;1.77;;
25419;SDS011;13354;48.174;11.566;2024-02-26T07:02:53;1.80;;;1.50;;
25419;SDS011;13354;48.174;11.566;2024-02-26T07:05:18;3.03;;;1.80;;
25419;SDS011;13354;48.174;11.566;2024-02-26T07:07:44;2.13;;;1.83;;
25419;SDS011;13354;48.174;11.566;2024-02-26T07:10:09;2.47;;;1.60;;
25419;SDS011;13354;48.174;11.566;2024-02-26T07:12:37;2.55;;;1.90;;
25419;SDS011;13354;48.174;11.566;2024-02-26T07:15:02;9.15;;;1.95;;
25419;SDS011;13354;48.174;11.566;2024-02-26T07:17:28;3.83;;;1.90;;
25419;SDS011;13354;48.174;11.566;2024-02-26T07:19:54;4.60;;;2.10;;
25419;SDS011;13354;48.174;11.566;2024-02-26T07:22:20;5.57;;;2.00;;
25419;SDS011;13354;48.174;11.566;2024-02-26T07:24:45;5.07;;;1.98;;
25419;SDS011;13354;48.174;11.566;2024-02-26T07:27:10;6.90;;;2.13;;
25419;SDS011;13354;48.174;11.566;2024-02-26T07:29:36;4.32;;;1.90;;
25419;SDS011;13354;48.174;11.566;2024-02-26T07:32:01;5.07;;;2.10;;
25419;SDS011;13354;48.174;11.566;2024-02-26T07:34:26;4.72;;;2.15;;
25419;SDS011;13354;48.174;11.566;2024-02-26T07:36:55;4.38;;;2.42;;
25419;SDS011;13354;48.174;11.566;2024-02-26T07:39:21;3.80;;;1.90;;
25419;SDS011;13354;48.174;11.566;2024-02-26T07:41:46;3.85;;;1.90;;
25419;SDS011;13354;48.174;11.566;2024-02-26T07:44:14;3.20;;;1.98;;
25419;SDS011;13354;48.174;11.566;2024-02-26T07:46:40;3.53;;;2.20;;
25419;SDS011;13354;48.174;11.566;2024-02-26T07:49:05;2.40;;;1.70;;
25419;SDS011;13354;48.174;11.566;2024-02-26T07:51:31;4.47;;;2.42;;
25419;SDS011;13354;48.174;11.566;2024-02-26T07:53:56;4.80;;;2.38;;
25419;SDS011;13354;48.174;11.566;2024-02-26T07:56:22;9.73;;;2.55;;
25419;SDS011;13354;48.174;11.566;2024-02-26T07:58:47;9.00;;;5.43;;
25419;SDS011;13354;48.174;11.566;2024-02-26T08:01:13;6.53;;;3.53;;
25419;SDS011;13354;48.174;11.566;2024-02-26T08:03:39;5.05;;;2.92;;
25419;SDS011;13354;48.174;11.566;2024-02-26T08:06:04;4.00;;;2.80;;
25419;SDS011;13354;48.174;11.566;2024-02-26T08:08:33;6.80;;;2.47;;
25419;SDS011;13354;48.174;11.566;2024-02-26T08:10:58;3.75;;;2.55;;
25419;SDS011;13354;48.174;11.566;2024-02-26T08:13:24;8.35;;;2.40;;
25419;SDS011;13354;48.174;11.566;2024-02-26T08:15:49;6.53;;;2.53;;
25419;SDS011;13354;48.174;11.566;2024-02-26T08:18:15;8.32;;;2.60;;
25419;SDS011;13354;48.174;11.566;2024-02-26T08:20:41;5.78;;;2.40;;
25419;SDS011;13354;48.174;11.566;2024-02-26T08:23:06;5.85;;;2.30;;
25419;SDS011;13354;48.174;11.566;2024-02-26T08:25:34;6.78;;;2.40;;
25419;SDS011;13354;48.174;11.566;2024-02-26T08:28:00;6.13;;;2.40;;
25419;SDS011;13354;48.174;11.566;2024-02-26T08:30:25;3.88;;;2.15;;
25419;SDS011;13354;48.174;11.566;2024-02-26T08:32:51;2.67;;;1.95;;
25419;SDS011;13354;48.174;11.566;2024-02-26T08:35:17;6.78;;;2.65;;
25419;SDS011;13354;48.174;11.566;2024-02-26T08:37:46;3.65;;;1.83;;
25419;SDS011;13354;48.174;11.566;2024-02-26T08:40:12;6.05;;;2.33;;
25419;SDS011;13354;48.174;11.566;2024-02-26T08:42:38;5.80;;;2.42;;
25419;SDS011;13354;48.174;11.566;2024-02-26T08:45:03;6.57;;;2.13;;
25419;SDS011;13354;48.174;11.566;2024-02-26T08:47:29;3.65;;;1.88;;
25419;SDS011;13354;48.174;11.566;2024-02-26T08:49:54;5.32;;;2.00;;
25419;SDS011;13354;48.174;11.566;2024-02-26T08:52:19;4.80;;;2.28;;
25419;SDS011;13354;48.174;11.566;2024-02-26T08:54:46;12.45;;;6.07;;
25419;SDS011;13354;48.174;11.566;2024-02-26T08:57:12;4.32;;;2.97;;
25419;SDS011;13354;48.174;11.566;2024-02-26T08:59:38;7.15;;;2.35;;
25419;SDS011;13354;48.174;11.566;2024-02-26T09:02:03;4.25;;;1.98;;
25419;SDS011;13354;48.174;11.566;2024-02-26T09:04:28;4.35;;;2.05;;
25419;SDS011;13354;48.174;11.566;2024-02-26T09:06:54;3.88;;;1.80;;
25419;SDS011;13354;48.174;11.566;2024-02-26T09:09:19;3.92;;;2.50;;
25419;SDS011;13354;48.174;11.566;2024-02-26T09:11:47;2.90;;;2.17;;
25419;SDS011;13354;48.174;11.566;2024-02-26T09:14:12;4.05;;;2.20;;
25419;SDS011;13354;48.174;11.566;2024-02-26T09:16:38;3.63;;;2.20;;
25419;SDS011;13354;48.174;11.566;2024-02-26T09:19:03;5.15;;;2.10;;
25419;SDS011;13354;48.174;11.566;2024-02-26T09:21:28;4.40;;;2.20;;
25419;SDS011;13354;48.174;11.566;2024-02-26T09:23:54;3.50;;;1.98;;
25419;SDS011;13354;48.174;11.566;2024-02-26T09:26:19;2.70;;;1.85;;
25419;SDS011;13354;48.174;11.566;2024-02-26T09:28:45;3.72;;;1.80;;
25419;SDS011;13354;48.174;11.566;2024-02-26T09:31:10;5.25;;;2.30;;
25419;SDS011;13354;48.174;11.566;2024-02-26T09:33:36;6.15;;;2.65;;
25419;SDS011;13354;48.174;11.566;2024-02-26T09:36:01;7.80;;;2.25;;
25419;SDS011;13354;48.174;11.566;2024-02-26T09:38:27;5.93;;;2.35;;
25419;SDS011;13354;48.174;11.566;2024-02-26T09:40:54;6.93;;;2.10;;
25419;SDS011;13354;48.174;11.566;2024-02-26T09:43:22;4.05;;;2.10;;
25419;SDS011;13354;48.174;11.566;2024-02-26T09:45:51;3.03;;;1.63;;
25419;SDS011;13354;48.174;11.566;2024-02-26T09:48:18;3.33;;;1.70;;
25419;SDS011;13354;48.174;11.566;2024-02-26T09:50:44;3.10;;;1.80;;
25419;SDS011;13354;48.174;11.566;2024-02-26T09:53:11;4.05;;;2.05;;
25419;SDS011;13354;48.174;11.566;2024-02-26T09:55:37;10.10;;;2.20;;
25419;SDS011;13354;48.174;11.566;2024-02-26T09:58:04;4.50;;;2.17;;
25419;SDS011;13354;48.174;11.566;2024-02-26T10:00:31;3.30;;;1.73;;
25419;SDS011;13354;48.174;11.566;2024-02-26T10:03:03;3.70;;;1.70;;
25419;SDS011;13354;48.174;11.566;2024-02-26T10:05:30;2.25;;;1.60;;
25419;SDS011;13354;48.174;11.566;2024-02-26T10:07:58;3.35;;;1.55;;
25419;SDS011;13354;48.174;11.566;2024-02-26T10:10:26;4.70;;;1.70;;
25419;SDS011;13354;48.174;11.566;2024-02-26T10:12:53;3.75;;;1.58;;
25419;SDS011;13354;48.174;11.566;2024-02-26T10:15:19;2.00;;;1.42;;
25419;SDS011;13354;48.174;11.566;2024-02-26T10:17:44;3.50;;;1.60;;
25419;SDS011;13354;48.174;11.566;2024-02-26T10:20:13;4.40;;;2.00;;
25419;SDS011;13354;48.174;11.566;2024-02-26T10:22:44;7.97;;;1.40;;
25419;SDS011;13354;48.174;11.566;2024-02-26T10:25:09;4.75;;;1.73;;
25419;SDS011;13354;48.174;11.566;2024-02-26T10:27:35;6.22;;;1.65;;
25419;SDS011;13354;48.174;11.566;2024-02-26T10:30:04;5.07;;;2.05;;
25419;SDS011;13354;48.174;11.566;2024-02-26T10:32:41;2.80;;;1.70;;
25419;SDS011;13354;48.174;11.566;2024-02-26T10:35:09;3.85;;;1.80;;
25419;SDS011;13354;48.174;11.566;2024-02-26T10:37:35;3.47;;;2.00;;
25419;SDS011;13354;48.174;11.566;2024-02-26T10:40:01;3.60;;;1.92;;
25419;SDS011;13354;48.174;11.566;2024-02-26T10:42:27;6.30;;;2.00;;
25419;SDS011;13354;48.174;11.566;2024-02-26T10:44:52;4.00;;;2.00;;
25419;SDS011;13354;48.174;11.566;2024-02-26T10:47:18;4.65;;;1.95;;
25419;SDS011;13354;48.174;11.566;2024-02-26T10:49:46;2.97;;;1.60;;
25419;SDS011;13354;48.174;11.566;2024-02-26T10:52:13;2.75;;;1.70;;
25419;SDS011;13354;48.174;11.566;2024-02-26T10:54:40;3.83;;;1.20;;
25419;SDS011;13354;48.174;11.566;2024-02-26T10:57:08;3.60;;;1.40;;
25419;SDS011;13354;48.174;11.566;2024-02-26T10:59:34;2.80;;;1.70;;
25419;SDS011;13354;48.174;11.566;2024-02-26T11:02:01;2.80;;;1.80;;
25419;SDS011;13354;48.174;11.566;2024-02-26T11:04:27;1.48;;;1.20;;
25419;SDS011;13354;48.174;11.566;2024-02-26T11:06:56;1.23;;;0.90;;
25419;SDS011;13354;48.174;11.566;2024-02-26T11:09:22;5.32;;;1.25;;
25419;SDS011;13354;48.174;11.566;2024-02-26T11:11:48;2.05;;;1.33;;
25419;SDS011;13354;48.174;11.566;2024-02-26T11:14:15;3.45;;;1.10;;
25419;SDS011;13354;48.174;11.566;2024-02-26T11:16:41;1.98;;;0.90;;
25419;SDS011;13354;48.174;11.566;2024-02-26T11:19:08;1.10;;;0.90;;
25419;SDS011;13354;48.174;11.566;2024-02-26T11:21:38;1.38;;;1.00;;
25419;SDS011;13354;48.174;11.566;2024-02-26T11:24:06;1.25;;;0.80;;
25419;SDS011;13354;48.174;11.566;2024-02-26T11:26:34;1.10;;;1.00;;
25419;SDS011;13354;48.174;11.566;2024-02-26T11:29:03;1.15;;;0.82;;
25419;SDS011;13354;48.174;11.566;2024-02-26T11:31:30;1.67;;;1.10;;
25419;SDS011;13354;48.174;11.566;2024-02-26T11:33:57;2.78;;;1.40;;
25419;SDS011;13354;48.174;11.566;2024-02-26T11:36:23;3.55;;;1.42;;
25419;SDS011;13354;48.174;11.566;2024-02-26T11:38:49;2.53;;;0.98;;
25419;SDS011;13354;48.174;11.566;2024-02-26T11:41:17;2.65;;;1.00;;
25419;SDS011;13354;48.174;11.566;2024-02-26T11:46:26;1.52;;;0.90;;
25419;SDS011;13354;48.174;11.566;2024-02-26T11:51:52;0.85;;;0.80;;
25419;SDS011;13354;48.174;11.566;2024-02-26T11:57:03;0.80;;;0.70;;
25419;SDS011;13354;48.174;11.566;2024-02-26T11:59:38;1.20;;;0.82;;
25419;SDS011;13354;48.174;11.566;2024-02-26T12:02:04;8.35;;;6.20;;
25419;SDS011;13354;48.174;11.566;2024-02-26T12:04:30;4.25;;;1.70;;
25419;SDS011;13354;48.174;11.566;2024-02-26T12:12:08;1.45;;;0.60;;
25419;SDS011;13354;48.174;11.566;2024-02-26T12:14:37;2.33;;;1.00;;
25419;SDS011;13354;48.174;11.566;2024-02-26T12:17:19;6.78;;;4.97;;
25419;SDS011;13354;48.174;11.566;2024-02-26T12:19:46;1.67;;;1.13;;
25419;SDS011;13354;48.174;11.566;2024-02-26T12:22:15;1.30;;;1.00;;
25419;SDS011;13354;48.174;11.566;2024-02-26T12:24:41;1.20;;;0.80;;
25419;SDS011;13354;48.174;11.566;2024-02-26T12:27:09;1.90;;;1.10;;
25419;SDS011;13354;48.174;11.566;2024-02-26T12:29:35;3.67;;;1.40;;
25419;SDS011;13354;48.174;11.566;2024-02-26T12:32:00;2.45;;;1.10;;
25419;SDS011;13354;48.174;11.566;2024-02-26T12:34:28;2.13;;;1.17;;
25419;SDS011;13354;48.174;11.566;2024-02-26T12:36:54;1.15;;;1.02;;
25419;SDS011;13354;48.174;11.566;2024-02-26T12:39:19;1.10;;;1.00;;
25419;SDS011;13354;48.174;11.566;2024-02-26T12:41:45;1.92;;;1.02;;
25419;SDS011;13354;48.174;11.566;2024-02-26T12:44:15;1.60;;;1.08;;
25419;SDS011;13354;48.174;11.566;2024-02-26T12:46:49;1.65;;;1.17;;
25419;SDS011;13354;48.174;11.566;2024-02-26T12:49:15;1.30;;;1.00;;
25419;SDS011;13354;48.174;11.566;2024-02-26T12:51:42;2.67;;;1.10;;
25419;SDS011;13354;48.174;11.566;2024-02-26T12:54:09;2.33;;;1.30;;
25419;SDS011;13354;48.174;11.566;2024-02-26T12:56:34;2.15;;;1.08;;
25419;SDS011;13354;48.174;11.566;2024-02-26T12:59:00;4.53;;;1.05;;
25419;SDS011;13354;48.174;11.566;2024-02-26T13:01:27;2.17;;;1.20;;
25419;SDS011;13354;48.174;11.566;2024-02-26T13:03:53;1.75;;;1.30;;
25419;SDS011;13354;48.174;11.566;2024-02-26T13:06:19;2.03;;;1.08;;
25419;SDS011;13354;48.174;11.566;2024-02-26T13:08:46;1.27;;;1.17;;
25419;SDS011;13354;48.174;11.566;2024-02-26T13:11:12;1.92;;;1.58;;
25419;SDS011;13354;48.174;11.566;2024-02-26T13:13:38;4.00;;;1.25;;
25419;SDS011;13354;48.174;11.566;2024-02-26T13:18:30;1.45;;;1.35;;
25419;SDS011;13354;48.174;11.566;2024-02-26T13:21:06;1.75;;;1.40;;
25419;SDS011;13354;48.174;11.566;2024-02-26T13:23:36;1.45;;;1.27;;
25419;SDS011;13354;48.174;11.566;2024-02-26T13:26:02;1.23;;;1.10;;
25419;SDS011;13354;48.174;11.566;2024-02-26T13:28:28;1.40;;;0.80;;
25419;SDS011;13354;48.174;11.566;2024-02-26T13:30:54;1.20;;;0.93;;
25419;SDS011;13354;48.174;11.566;2024-02-26T13:33:22;1.20;;;0.88;;
25419;SDS011;13354;48.174;11.566;2024-02-26T13:35:48;1.80;;;1.17;;
25419;SDS011;13354;48.174;11.566;2024-02-26T13:38:14;1.50;;;1.20;;
25419;SDS011;13354;48.174;11.566;2024-02-26T13:40:40;1.15;;;0.70;;
25419;SDS011;13354;48.174;11.566;2024-02-26T13:43:05;1.58;;;0.60;;
25419;SDS011;13354;48.174;11.566;2024-02-26T13:45:33;0.73;;;0.50;;
25419;SDS011;13354;48.174;11.566;2024-02-26T13:48:01;0.40;;;0.40;;
25419;SDS011;13354;48.174;11.566;2024-02-26T13:50:28;0.75;;;0.40;;
25419;SDS011;13354;48.174;11.566;2024-02-26T13:52:53;0.50;;;0.45;;
25419;SDS011;13354;48.174;11.566;2024-02-26T13:55:21;0.68;;;0.43;;
25419;SDS011;13354;48.174;11.566;2024-02-26T13:57:47;0.55;;;0.35;;
25419;SDS011;13354;48.174;11.566;2024-02-26T14:00:13;0.95;;;0.50;;
25419;SDS011;13354;48.174;11.566;2024-02-26T14:02:39;0.70;;;0.68;;
25419;SDS011;13354;48.174;11.566;2024-02-26T14:05:04;0.60;;;0.60;;
25419;SDS011;13354;48.174;11.566;2024-02-26T14:07:30;0.65;;;0.50;;
25419;SDS011;13354;48.174;11.566;2024-02-26T14:09:57;0.85;;;0.80;;
25419;SDS011;13354;48.174;11.566;2024-02-26T14:12:23;0.88;;;0.60;;
25419;SDS011;13354;48.174;11.566;2024-02-26T14:14:49;1.80;;;1.00;;
25419;SDS011;13354;48.174;11.566;2024-02-26T14:17:14;2.45;;;0.90;;
25419;SDS011;13354;48.174;11.566;2024-02-26T14:19:40;1.20;;;1.00;;
25419;SDS011;13354;48.174;11.566;2024-02-26T14:22:11;1.20;;;0.93;;
25419;SDS011;13354;48.174;11.566;2024-02-26T14:24:37;3.22;;;1.48;;
25419;SDS011;13354;48.174;11.566;2024-02-26T14:27:02;2.13;;;1.50;;
25419;SDS011;13354;48.174;11.566;2024-02-26T14:29:28;2.00;;;1.40;;
25419;SDS011;13354;48.174;11.566;2024-02-26T14:31:54;2.03;;;1.38;;
25419;SDS011;13354;48.174;11.566;2024-02-26T14:34:21;1.88;;;1.10;;
25419;SDS011;13354;48.174;11.566;2024-02-26T14:36:46;1.33;;;1.05;;
25419;SDS011;13354;48.174;11.566;2024-02-26T14:39:12;1.50;;;1.20;;
25419;SDS011;13354;48.174;11.566;2024-02-26T14:41:38;2.33;;;1.58;;
25419;SDS011;13354;48.174;11.566;2024-02-26T14:44:04;1.95;;;1.17;;